sensor_id;sensor_type;location;lat;lon;timestamp;P1;durP1;ratioP1;P2;durP2;ratioP2
65924;SDS011;66010;52.084;5.412;2024-01-30T00:01:27;7.53;;;3.10;;
65924;SDS011;66010;52.084;5.412;2024-01-30T00:03:54;6.05;;;2.85;;
65924;SDS011;66010;52.084;5.412;2024-01-30T00:06:21;7.00;;;3.28;;
65924;SDS011;66010;52.084;5.412;2024-01-30T00:08:47;7.85;;;3.22;;
65924;SDS011;66010;52.084;5.412;2024-01-30T00:11:15;6.53;;;3.05;;
65924;SDS011;66010;52.084;5.412;2024-01-30T00:13:42;6.95;;;3.13;;
65924;SDS011;66010;52.084;5.412;2024-01-30T00:16:08;7.07;;;3.20;;
65924;SDS011;66010;52.084;5.412;2024-01-30T00:18:35;6.80;;;3.08;;
65924;SDS011;66010;52.084;5.412;2024-01-30T00:21:02;7.20;;;3.08;;
65924;SDS011;66010;52.084;5.412;2024-01-30T00:23:29;7.13;;;3.15;;
65924;SDS011;66010;52.084;5.412;2024-01-30T00:25:55;7.18;;;3.10;;
65924;SDS011;66010;52.084;5.412;2024-01-30T00:28:23;7.63;;;3.65;;
65924;SDS011;66010;52.084;5.412;2024-01-30T00:30:49;7.68;;;3.22;;
65924;SDS011;66010;52.084;5.412;2024-01-30T00:33:16;6.15;;;2.97;;
65924;SDS011;66010;52.084;5.412;2024-01-30T00:35:42;6.35;;;2.92;;
65924;SDS011;66010;52.084;5.412;2024-01-30T00:38:09;6.45;;;3.13;;
65924;SDS011;66010;52.084;5.412;2024-01-30T00:40:36;9.93;;;3.28;;
65924;SDS011;66010;52.084;5.412;2024-01-30T00:43:02;7.10;;;3.38;;
65924;SDS011;66010;52.084;5.412;2024-01-30T00:45:29;7.03;;;3.22;;
65924;SDS011;66010;52.084;5.412;2024-01-30T00:47:55;7.55;;;3.35;;
65924;SDS011;66010;52.084;5.412;2024-01-30T00:50:22;7.38;;;2.90;;
65924;SDS011;66010;52.084;5.412;2024-01-30T00:52:49;6.72;;;3.08;;
65924;SDS011;66010;52.084;5.412;2024-01-30T00:55:15;8.63;;;3.03;;
65924;SDS011;66010;52.084;5.412;2024-01-30T00:57:42;7.78;;;3.13;;
65924;SDS011;66010;52.084;5.412;2024-01-30T01:00:11;7.78;;;3.13;;
65924;SDS011;66010;52.084;5.412;2024-01-30T01:02:38;6.50;;;3.03;;
65924;SDS011;66010;52.084;5.412;2024-01-30T01:05:05;8.48;;;3.15;;
65924;SDS011;66010;52.084;5.412;2024-01-30T01:07:32;7.25;;;3.28;;
65924;SDS011;66010;52.084;5.412;2024-01-30T01:09:58;7.85;;;3.30;;
65924;SDS011;66010;52.084;5.412;2024-01-30T01:12:25;8.05;;;3.38;;
65924;SDS011;66010;52.084;5.412;2024-01-30T01:14:51;7.95;;;3.28;;
65924;SDS011;66010;52.084;5.412;2024-01-30T01:17:18;7.60;;;3.15;;
65924;SDS011;66010;52.084;5.412;2024-01-30T01:19:45;9.48;;;3.30;;
65924;SDS011;66010;52.084;5.412;2024-01-30T01:22:11;8.50;;;3.50;;
65924;SDS011;66010;52.084;5.412;2024-01-30T01:24:38;7.10;;;3.20;;
65924;SDS011;66010;52.084;5.412;2024-01-30T01:27:05;6.75;;;3.20;;
65924;SDS011;66010;52.084;5.412;2024-01-30T01:29:32;7.35;;;3.30;;
65924;SDS011;66010;52.084;5.412;2024-01-30T01:31:58;7.68;;;3.13;;
65924;SDS011;66010;52.084;5.412;2024-01-30T01:34:25;7.20;;;3.25;;
65924;SDS011;66010;52.084;5.412;2024-01-30T01:36:56;7.53;;;3.15;;
65924;SDS011;66010;52.084;5.412;2024-01-30T01:39:22;7.85;;;3.47;;
65924;SDS011;66010;52.084;5.412;2024-01-30T01:41:50;6.68;;;3.10;;
65924;SDS011;66010;52.084;5.412;2024-01-30T01:44:17;6.97;;;3.13;;
65924;SDS011;66010;52.084;5.412;2024-01-30T01:46:44;7.53;;;3.25;;
65924;SDS011;66010;52.084;5.412;2024-01-30T01:49:10;8.38;;;3.55;;
65924;SDS011;66010;52.084;5.412;2024-01-30T01:51:37;6.97;;;3.10;;
65924;SDS011;66010;52.084;5.412;2024-01-30T01:54:04;7.25;;;3.22;;
65924;SDS011;66010;52.084;5.412;2024-01-30T01:56:32;7.57;;;3.30;;
65924;SDS011;66010;52.084;5.412;2024-01-30T01:59:06;8.75;;;3.30;;
65924;SDS011;66010;52.084;5.412;2024-01-30T02:01:34;6.93;;;3.10;;
65924;SDS011;66010;52.084;5.412;2024-01-30T02:04:02;6.60;;;3.30;;
65924;SDS011;66010;52.084;5.412;2024-01-30T02:06:28;6.43;;;3.35;;
65924;SDS011;66010;52.084;5.412;2024-01-30T02:08:55;6.95;;;3.22;;
65924;SDS011;66010;52.084;5.412;2024-01-30T02:11:22;6.78;;;3.33;;
65924;SDS011;66010;52.084;5.412;2024-01-30T02:13:49;14.93;;;4.10;;
65924;SDS011;66010;52.084;5.412;2024-01-30T02:16:15;12.35;;;3.42;;
65924;SDS011;66010;52.084;5.412;2024-01-30T02:18:43;12.02;;;3.75;;
65924;SDS011;66010;52.084;5.412;2024-01-30T02:21:16;9.93;;;3.75;;
65924;SDS011;66010;52.084;5.412;2024-01-30T02:23:44;11.52;;;3.13;;
65924;SDS011;66010;52.084;5.412;2024-01-30T02:28:38;9.18;;;3.42;;
65924;SDS011;66010;52.084;5.412;2024-01-30T02:31:05;12.70;;;3.22;;
65924;SDS011;66010;52.084;5.412;2024-01-30T02:33:31;12.50;;;3.63;;
65924;SDS011;66010;52.084;5.412;2024-01-30T02:35:58;8.02;;;3.30;;
65924;SDS011;66010;52.084;5.412;2024-01-30T02:38:25;7.63;;;3.20;;
65924;SDS011;66010;52.084;5.412;2024-01-30T02:40:53;9.90;;;3.20;;
65924;SDS011;66010;52.084;5.412;2024-01-30T02:43:19;7.43;;;3.45;;
65924;SDS011;66010;52.084;5.412;2024-01-30T02:45:46;6.82;;;3.25;;
65924;SDS011;66010;52.084;5.412;2024-01-30T02:48:12;7.22;;;3.28;;
65924;SDS011;66010;52.084;5.412;2024-01-30T02:50:39;7.95;;;3.00;;
65924;SDS011;66010;52.084;5.412;2024-01-30T02:53:06;8.25;;;3.13;;
65924;SDS011;66010;52.084;5.412;2024-01-30T02:55:32;8.00;;;3.40;;
65924;SDS011;66010;52.084;5.412;2024-01-30T02:57:59;13.30;;;3.80;;
65924;SDS011;66010;52.084;5.412;2024-01-30T03:00:25;9.52;;;3.45;;
65924;SDS011;66010;52.084;5.412;2024-01-30T03:02:52;8.75;;;3.20;;
65924;SDS011;66010;52.084;5.412;2024-01-30T03:05:18;9.23;;;3.50;;
65924;SDS011;66010;52.084;5.412;2024-01-30T03:07:45;7.05;;;3.35;;
65924;SDS011;66010;52.084;5.412;2024-01-30T03:10:12;7.30;;;3.40;;
65924;SDS011;66010;52.084;5.412;2024-01-30T03:12:38;8.20;;;3.25;;
65924;SDS011;66010;52.084;5.412;2024-01-30T03:15:05;8.63;;;3.65;;
65924;SDS011;66010;52.084;5.412;2024-01-30T03:17:31;10.15;;;3.65;;
65924;SDS011;66010;52.084;5.412;2024-01-30T03:19:58;8.23;;;3.35;;
65924;SDS011;66010;52.084;5.412;2024-01-30T03:22:25;8.38;;;3.30;;
65924;SDS011;66010;52.084;5.412;2024-01-30T03:24:52;8.88;;;3.22;;
65924;SDS011;66010;52.084;5.412;2024-01-30T03:27:18;6.80;;;3.22;;
65924;SDS011;66010;52.084;5.412;2024-01-30T03:29:45;9.00;;;3.67;;
65924;SDS011;66010;52.084;5.412;2024-01-30T03:32:11;7.95;;;3.33;;
65924;SDS011;66010;52.084;5.412;2024-01-30T03:34:37;15.23;;;3.80;;
65924;SDS011;66010;52.084;5.412;2024-01-30T03:37:05;10.88;;;3.80;;
65924;SDS011;66010;52.084;5.412;2024-01-30T03:39:31;8.43;;;3.60;;
65924;SDS011;66010;52.084;5.412;2024-01-30T03:42:03;9.02;;;3.03;;
65924;SDS011;66010;52.084;5.412;2024-01-30T03:44:29;8.75;;;3.70;;
65924;SDS011;66010;52.084;5.412;2024-01-30T03:46:56;7.53;;;3.22;;
65924;SDS011;66010;52.084;5.412;2024-01-30T03:49:22;7.13;;;3.45;;
65924;SDS011;66010;52.084;5.412;2024-01-30T03:51:49;7.68;;;3.35;;
65924;SDS011;66010;52.084;5.412;2024-01-30T03:54:16;9.70;;;3.63;;
65924;SDS011;66010;52.084;5.412;2024-01-30T03:56:42;9.32;;;3.45;;
65924;SDS011;66010;52.084;5.412;2024-01-30T03:59:08;15.40;;;3.58;;
65924;SDS011;66010;52.084;5.412;2024-01-30T04:01:35;16.63;;;3.60;;
65924;SDS011;66010;52.084;5.412;2024-01-30T04:04:01;8.70;;;3.55;;
65924;SDS011;66010;52.084;5.412;2024-01-30T04:06:28;10.93;;;3.25;;
65924;SDS011;66010;52.084;5.412;2024-01-30T04:08:54;10.77;;;3.90;;
65924;SDS011;66010;52.084;5.412;2024-01-30T04:11:21;9.13;;;3.28;;
65924;SDS011;66010;52.084;5.412;2024-01-30T04:13:47;7.78;;;3.17;;
65924;SDS011;66010;52.084;5.412;2024-01-30T04:16:21;8.80;;;3.40;;
65924;SDS011;66010;52.084;5.412;2024-01-30T04:18:51;9.13;;;3.45;;
65924;SDS011;66010;52.084;5.412;2024-01-30T04:21:17;11.65;;;3.30;;
65924;SDS011;66010;52.084;5.412;2024-01-30T04:23:44;10.38;;;3.38;;
65924;SDS011;66010;52.084;5.412;2024-01-30T04:26:10;8.32;;;3.35;;
65924;SDS011;66010;52.084;5.412;2024-01-30T04:28:37;8.70;;;3.35;;
65924;SDS011;66010;52.084;5.412;2024-01-30T04:31:04;7.93;;;3.50;;
65924;SDS011;66010;52.084;5.412;2024-01-30T04:33:30;7.88;;;3.13;;
65924;SDS011;66010;52.084;5.412;2024-01-30T04:35:57;10.27;;;3.55;;
65924;SDS011;66010;52.084;5.412;2024-01-30T04:38:23;12.77;;;3.53;;
65924;SDS011;66010;52.084;5.412;2024-01-30T04:40:50;8.05;;;3.33;;
65924;SDS011;66010;52.084;5.412;2024-01-30T04:43:16;8.23;;;3.30;;
65924;SDS011;66010;52.084;5.412;2024-01-30T04:45:43;8.00;;;2.95;;
65924;SDS011;66010;52.084;5.412;2024-01-30T04:48:10;8.82;;;3.60;;
65924;SDS011;66010;52.084;5.412;2024-01-30T04:50:36;8.60;;;3.22;;
65924;SDS011;66010;52.084;5.412;2024-01-30T04:53:03;10.65;;;3.25;;
65924;SDS011;66010;52.084;5.412;2024-01-30T04:55:29;8.77;;;3.15;;
65924;SDS011;66010;52.084;5.412;2024-01-30T04:57:56;10.55;;;3.28;;
65924;SDS011;66010;52.084;5.412;2024-01-30T05:00:22;7.63;;;3.45;;
65924;SDS011;66010;52.084;5.412;2024-01-30T05:02:49;7.88;;;3.10;;
65924;SDS011;66010;52.084;5.412;2024-01-30T05:05:15;7.60;;;3.30;;
65924;SDS011;66010;52.084;5.412;2024-01-30T05:07:43;13.30;;;3.60;;
65924;SDS011;66010;52.084;5.412;2024-01-30T05:10:09;9.60;;;3.13;;
65924;SDS011;66010;52.084;5.412;2024-01-30T05:12:36;6.85;;;2.85;;
65924;SDS011;66010;52.084;5.412;2024-01-30T05:15:02;9.73;;;3.15;;
65924;SDS011;66010;52.084;5.412;2024-01-30T05:17:29;11.02;;;3.42;;
65924;SDS011;66010;52.084;5.412;2024-01-30T05:19:55;8.82;;;3.30;;
65924;SDS011;66010;52.084;5.412;2024-01-30T05:22:22;9.15;;;2.95;;
65924;SDS011;66010;52.084;5.412;2024-01-30T05:24:49;8.85;;;3.13;;
65924;SDS011;66010;52.084;5.412;2024-01-30T05:27:15;7.70;;;3.20;;
65924;SDS011;66010;52.084;5.412;2024-01-30T05:29:42;6.63;;;3.08;;
65924;SDS011;66010;52.084;5.412;2024-01-30T05:32:08;6.43;;;3.30;;
65924;SDS011;66010;52.084;5.412;2024-01-30T05:34:35;6.10;;;2.90;;
65924;SDS011;66010;52.084;5.412;2024-01-30T05:37:01;6.60;;;3.13;;
65924;SDS011;66010;52.084;5.412;2024-01-30T05:39:28;6.68;;;3.10;;
65924;SDS011;66010;52.084;5.412;2024-01-30T05:41:54;6.65;;;3.10;;
65924;SDS011;66010;52.084;5.412;2024-01-30T05:44:21;8.20;;;3.08;;
65924;SDS011;66010;52.084;5.412;2024-01-30T05:46:47;8.43;;;3.25;;
65924;SDS011;66010;52.084;5.412;2024-01-30T05:49:14;7.72;;;2.80;;
65924;SDS011;66010;52.084;5.412;2024-01-30T05:51:40;8.50;;;3.20;;
65924;SDS011;66010;52.084;5.412;2024-01-30T05:54:07;6.95;;;3.17;;
65924;SDS011;66010;52.084;5.412;2024-01-30T05:56:34;7.30;;;3.10;;
65924;SDS011;66010;52.084;5.412;2024-01-30T05:59:00;6.50;;;3.08;;
65924;SDS011;66010;52.084;5.412;2024-01-30T06:01:27;7.30;;;3.03;;
65924;SDS011;66010;52.084;5.412;2024-01-30T06:03:53;9.38;;;3.00;;
65924;SDS011;66010;52.084;5.412;2024-01-30T06:06:20;6.57;;;2.95;;
65924;SDS011;66010;52.084;5.412;2024-01-30T06:08:47;7.30;;;2.80;;
65924;SDS011;66010;52.084;5.412;2024-01-30T06:11:13;7.10;;;2.80;;
65924;SDS011;66010;52.084;5.412;2024-01-30T06:13:40;7.20;;;2.97;;
65924;SDS011;66010;52.084;5.412;2024-01-30T06:16:09;6.90;;;3.00;;
65924;SDS011;66010;52.084;5.412;2024-01-30T06:18:36;6.70;;;2.83;;
65924;SDS011;66010;52.084;5.412;2024-01-30T06:21:03;6.13;;;2.63;;
65924;SDS011;66010;52.084;5.412;2024-01-30T06:23:30;5.78;;;2.90;;
65924;SDS011;66010;52.084;5.412;2024-01-30T06:25:57;7.55;;;2.65;;
65924;SDS011;66010;52.084;5.412;2024-01-30T06:28:23;6.75;;;2.90;;
65924;SDS011;66010;52.084;5.412;2024-01-30T06:30:50;7.55;;;2.63;;
65924;SDS011;66010;52.084;5.412;2024-01-30T06:33:16;6.80;;;2.83;;
65924;SDS011;66010;52.084;5.412;2024-01-30T06:35:43;8.15;;;2.95;;
65924;SDS011;66010;52.084;5.412;2024-01-30T06:38:11;7.32;;;2.97;;
65924;SDS011;66010;52.084;5.412;2024-01-30T06:40:39;7.15;;;3.20;;
65924;SDS011;66010;52.084;5.412;2024-01-30T06:43:06;7.50;;;3.28;;
65924;SDS011;66010;52.084;5.412;2024-01-30T06:45:34;5.90;;;2.67;;
65924;SDS011;66010;52.084;5.412;2024-01-30T06:48:01;7.15;;;2.90;;
65924;SDS011;66010;52.084;5.412;2024-01-30T06:50:27;9.25;;;2.90;;
65924;SDS011;66010;52.084;5.412;2024-01-30T06:52:54;6.47;;;3.20;;
65924;SDS011;66010;52.084;5.412;2024-01-30T06:55:20;6.47;;;3.00;;
65924;SDS011;66010;52.084;5.412;2024-01-30T06:57:47;6.75;;;3.03;;
65924;SDS011;66010;52.084;5.412;2024-01-30T07:00:16;7.05;;;2.97;;
65924;SDS011;66010;52.084;5.412;2024-01-30T07:02:45;6.63;;;2.80;;
65924;SDS011;66010;52.084;5.412;2024-01-30T07:05:11;8.20;;;2.90;;
65924;SDS011;66010;52.084;5.412;2024-01-30T07:07:38;6.25;;;2.97;;
65924;SDS011;66010;52.084;5.412;2024-01-30T07:10:04;7.05;;;2.95;;
65924;SDS011;66010;52.084;5.412;2024-01-30T07:12:31;6.07;;;2.72;;
65924;SDS011;66010;52.084;5.412;2024-01-30T07:14:58;6.60;;;2.80;;
65924;SDS011;66010;52.084;5.412;2024-01-30T07:17:26;6.90;;;2.72;;
65924;SDS011;66010;52.084;5.412;2024-01-30T07:19:52;7.25;;;2.75;;
65924;SDS011;66010;52.084;5.412;2024-01-30T07:22:19;6.97;;;3.15;;
65924;SDS011;66010;52.084;5.412;2024-01-30T07:24:45;8.52;;;3.00;;
65924;SDS011;66010;52.084;5.412;2024-01-30T07:27:14;6.30;;;2.72;;
65924;SDS011;66010;52.084;5.412;2024-01-30T07:29:41;6.65;;;2.70;;
65924;SDS011;66010;52.084;5.412;2024-01-30T07:32:07;6.75;;;2.92;;
65924;SDS011;66010;52.084;5.412;2024-01-30T07:34:33;6.78;;;2.70;;
65924;SDS011;66010;52.084;5.412;2024-01-30T07:37:15;7.13;;;2.83;;
65924;SDS011;66010;52.084;5.412;2024-01-30T07:39:42;12.05;;;3.35;;
65924;SDS011;66010;52.084;5.412;2024-01-30T07:42:09;11.02;;;3.42;;
65924;SDS011;66010;52.084;5.412;2024-01-30T07:44:35;9.45;;;2.97;;
65924;SDS011;66010;52.084;5.412;2024-01-30T07:47:02;17.38;;;3.50;;
65924;SDS011;66010;52.084;5.412;2024-01-30T07:49:29;7.57;;;2.90;;
65924;SDS011;66010;52.084;5.412;2024-01-30T07:51:56;8.27;;;2.95;;
65924;SDS011;66010;52.084;5.412;2024-01-30T07:54:22;11.10;;;2.90;;
65924;SDS011;66010;52.084;5.412;2024-01-30T07:56:52;7.13;;;2.70;;
65924;SDS011;66010;52.084;5.412;2024-01-30T07:59:18;9.10;;;2.90;;
65924;SDS011;66010;52.084;5.412;2024-01-30T08:01:48;7.82;;;2.70;;
65924;SDS011;66010;52.084;5.412;2024-01-30T08:04:14;6.30;;;2.75;;
65924;SDS011;66010;52.084;5.412;2024-01-30T08:06:41;6.53;;;2.83;;
65924;SDS011;66010;52.084;5.412;2024-01-30T08:09:09;5.45;;;2.58;;
65924;SDS011;66010;52.084;5.412;2024-01-30T08:11:37;6.28;;;2.92;;
65924;SDS011;66010;52.084;5.412;2024-01-30T08:14:04;5.53;;;2.63;;
65924;SDS011;66010;52.084;5.412;2024-01-30T08:16:30;6.03;;;2.65;;
65924;SDS011;66010;52.084;5.412;2024-01-30T08:18:57;7.70;;;2.90;;
65924;SDS011;66010;52.084;5.412;2024-01-30T08:23:51;9.40;;;2.90;;
65924;SDS011;66010;52.084;5.412;2024-01-30T08:26:17;7.63;;;2.47;;
65924;SDS011;66010;52.084;5.412;2024-01-30T08:28:44;6.47;;;2.58;;
65924;SDS011;66010;52.084;5.412;2024-01-30T08:31:10;6.70;;;2.70;;
65924;SDS011;66010;52.084;5.412;2024-01-30T08:33:38;6.85;;;2.67;;
65924;SDS011;66010;52.084;5.412;2024-01-30T08:36:06;5.88;;;2.50;;
65924;SDS011;66010;52.084;5.412;2024-01-30T08:38:33;7.57;;;2.60;;
65924;SDS011;66010;52.084;5.412;2024-01-30T08:40:59;5.53;;;2.72;;
65924;SDS011;66010;52.084;5.412;2024-01-30T08:43:26;9.95;;;2.70;;
65924;SDS011;66010;52.084;5.412;2024-01-30T08:45:52;6.13;;;2.58;;
65924;SDS011;66010;52.084;5.412;2024-01-30T08:48:19;7.15;;;2.45;;
65924;SDS011;66010;52.084;5.412;2024-01-30T08:50:45;6.22;;;2.67;;
65924;SDS011;66010;52.084;5.412;2024-01-30T08:53:12;6.05;;;2.70;;
65924;SDS011;66010;52.084;5.412;2024-01-30T08:55:38;5.55;;;2.50;;
65924;SDS011;66010;52.084;5.412;2024-01-30T08:58:05;6.35;;;2.40;;
65924;SDS011;66010;52.084;5.412;2024-01-30T09:00:31;6.13;;;2.97;;
65924;SDS011;66010;52.084;5.412;2024-01-30T09:02:58;5.75;;;2.50;;
65924;SDS011;66010;52.084;5.412;2024-01-30T09:05:25;5.63;;;2.63;;
65924;SDS011;66010;52.084;5.412;2024-01-30T09:07:51;6.15;;;2.58;;
65924;SDS011;66010;52.084;5.412;2024-01-30T09:10:19;6.97;;;2.80;;
65924;SDS011;66010;52.084;5.412;2024-01-30T09:12:47;6.75;;;2.55;;
65924;SDS011;66010;52.084;5.412;2024-01-30T09:15:14;5.38;;;2.70;;
65924;SDS011;66010;52.084;5.412;2024-01-30T09:17:40;7.30;;;2.63;;
65924;SDS011;66010;52.084;5.412;2024-01-30T09:20:07;7.78;;;3.22;;
65924;SDS011;66010;52.084;5.412;2024-01-30T09:22:35;6.20;;;2.60;;
65924;SDS011;66010;52.084;5.412;2024-01-30T09:25:02;6.32;;;2.65;;
65924;SDS011;66010;52.084;5.412;2024-01-30T09:27:29;6.18;;;2.50;;
65924;SDS011;66010;52.084;5.412;2024-01-30T09:29:55;7.35;;;2.88;;
65924;SDS011;66010;52.084;5.412;2024-01-30T09:32:22;6.15;;;2.60;;
65924;SDS011;66010;52.084;5.412;2024-01-30T09:34:48;6.32;;;2.78;;
65924;SDS011;66010;52.084;5.412;2024-01-30T09:37:15;5.63;;;2.40;;
65924;SDS011;66010;52.084;5.412;2024-01-30T09:39:44;6.43;;;2.85;;
65924;SDS011;66010;52.084;5.412;2024-01-30T09:44:37;6.63;;;2.75;;
65924;SDS011;66010;52.084;5.412;2024-01-30T09:47:04;5.03;;;2.55;;
65924;SDS011;66010;52.084;5.412;2024-01-30T09:49:32;7.30;;;2.58;;
65924;SDS011;66010;52.084;5.412;2024-01-30T09:51:59;6.10;;;2.47;;
65924;SDS011;66010;52.084;5.412;2024-01-30T09:56:53;7.47;;;2.70;;
65924;SDS011;66010;52.084;5.412;2024-01-30T09:59:19;5.80;;;2.53;;
65924;SDS011;66010;52.084;5.412;2024-01-30T10:01:45;7.72;;;2.75;;
65924;SDS011;66010;52.084;5.412;2024-01-30T10:04:12;7.68;;;2.72;;
65924;SDS011;66010;52.084;5.412;2024-01-30T10:06:40;6.72;;;2.75;;
65924;SDS011;66010;52.084;5.412;2024-01-30T10:11:32;5.13;;;2.60;;
65924;SDS011;66010;52.084;5.412;2024-01-30T10:13:59;6.55;;;2.70;;
65924;SDS011;66010;52.084;5.412;2024-01-30T10:16:26;6.10;;;2.42;;
65924;SDS011;66010;52.084;5.412;2024-01-30T10:18:53;7.72;;;2.72;;
65924;SDS011;66010;52.084;5.412;2024-01-30T10:21:20;5.82;;;2.58;;
65924;SDS011;66010;52.084;5.412;2024-01-30T10:23:47;7.95;;;2.58;;
65924;SDS011;66010;52.084;5.412;2024-01-30T10:26:13;6.30;;;2.50;;
65924;SDS011;66010;52.084;5.412;2024-01-30T10:28:42;6.90;;;2.60;;
65924;SDS011;66010;52.084;5.412;2024-01-30T10:31:09;6.60;;;2.85;;
65924;SDS011;66010;52.084;5.412;2024-01-30T10:33:36;6.78;;;2.83;;
65924;SDS011;66010;52.084;5.412;2024-01-30T10:36:03;6.85;;;2.60;;
65924;SDS011;66010;52.084;5.412;2024-01-30T10:38:31;5.45;;;2.42;;
65924;SDS011;66010;52.084;5.412;2024-01-30T10:40:58;5.82;;;2.72;;
65924;SDS011;66010;52.084;5.412;2024-01-30T10:43:32;7.22;;;2.67;;
65924;SDS011;66010;52.084;5.412;2024-01-30T10:46:20;5.80;;;2.60;;
65924;SDS011;66010;52.084;5.412;2024-01-30T10:48:56;5.03;;;2.60;;
65924;SDS011;66010;52.084;5.412;2024-01-30T10:51:23;5.35;;;2.20;;
65924;SDS011;66010;52.084;5.412;2024-01-30T10:53:51;7.45;;;2.35;;
65924;SDS011;66010;52.084;5.412;2024-01-30T10:56:19;4.95;;;2.50;;
65924;SDS011;66010;52.084;5.412;2024-01-30T10:58:50;5.43;;;2.33;;
65924;SDS011;66010;52.084;5.412;2024-01-30T11:01:21;6.10;;;2.67;;
65924;SDS011;66010;52.084;5.412;2024-01-30T11:03:51;4.72;;;2.30;;
65924;SDS011;66010;52.084;5.412;2024-01-30T11:08:45;6.15;;;2.80;;
65924;SDS011;66010;52.084;5.412;2024-01-30T11:13:41;6.90;;;2.90;;
65924;SDS011;66010;52.084;5.412;2024-01-30T11:16:08;5.43;;;2.50;;
65924;SDS011;66010;52.084;5.412;2024-01-30T11:18:37;6.68;;;2.40;;
65924;SDS011;66010;52.084;5.412;2024-01-30T11:21:04;5.75;;;2.63;;
65924;SDS011;66010;52.084;5.412;2024-01-30T11:23:32;6.05;;;2.60;;
65924;SDS011;66010;52.084;5.412;2024-01-30T11:25:59;6.85;;;2.70;;
65924;SDS011;66010;52.084;5.412;2024-01-30T11:31:02;5.75;;;2.42;;
65924;SDS011;66010;52.084;5.412;2024-01-30T11:33:29;5.07;;;2.22;;
65924;SDS011;66010;52.084;5.412;2024-01-30T11:36:01;5.15;;;2.15;;
65924;SDS011;66010;52.084;5.412;2024-01-30T11:38:28;5.75;;;2.47;;
65924;SDS011;66010;52.084;5.412;2024-01-30T11:40:55;6.43;;;2.45;;
65924;SDS011;66010;52.084;5.412;2024-01-30T11:43:25;5.10;;;2.28;;
65924;SDS011;66010;52.084;5.412;2024-01-30T11:45:51;6.25;;;2.40;;
65924;SDS011;66010;52.084;5.412;2024-01-30T11:48:18;5.43;;;2.20;;
65924;SDS011;66010;52.084;5.412;2024-01-30T11:50:45;5.18;;;2.20;;
65924;SDS011;66010;52.084;5.412;2024-01-30T11:53:12;4.05;;;2.00;;
65924;SDS011;66010;52.084;5.412;2024-01-30T11:55:39;4.63;;;1.98;;
65924;SDS011;66010;52.084;5.412;2024-01-30T11:58:05;5.30;;;2.00;;
65924;SDS011;66010;52.084;5.412;2024-01-30T12:00:32;6.03;;;2.20;;
65924;SDS011;66010;52.084;5.412;2024-01-30T12:03:01;5.53;;;1.90;;
65924;SDS011;66010;52.084;5.412;2024-01-30T12:05:28;4.35;;;2.10;;
65924;SDS011;66010;52.084;5.412;2024-01-30T12:10:25;5.38;;;2.00;;
65924;SDS011;66010;52.084;5.412;2024-01-30T12:12:53;4.45;;;1.90;;
65924;SDS011;66010;52.084;5.412;2024-01-30T12:15:21;3.88;;;1.63;;
65924;SDS011;66010;52.084;5.412;2024-01-30T12:17:48;4.30;;;1.70;;
65924;SDS011;66010;52.084;5.412;2024-01-30T12:20:17;4.43;;;1.98;;
65924;SDS011;66010;52.084;5.412;2024-01-30T12:22:45;4.43;;;1.98;;
65924;SDS011;66010;52.084;5.412;2024-01-30T12:25:12;4.38;;;1.73;;
65924;SDS011;66010;52.084;5.412;2024-01-30T12:27:40;4.13;;;1.63;;
65924;SDS011;66010;52.084;5.412;2024-01-30T12:30:08;4.25;;;1.80;;
65924;SDS011;66010;52.084;5.412;2024-01-30T12:32:36;4.20;;;1.75;;
65924;SDS011;66010;52.084;5.412;2024-01-30T12:35:02;3.47;;;1.70;;
65924;SDS011;66010;52.084;5.412;2024-01-30T12:39:56;3.28;;;1.60;;
65924;SDS011;66010;52.084;5.412;2024-01-30T12:42:23;3.13;;;1.60;;
65924;SDS011;66010;52.084;5.412;2024-01-30T12:44:49;4.25;;;1.80;;
65924;SDS011;66010;52.084;5.412;2024-01-30T12:47:16;3.38;;;1.42;;
65924;SDS011;66010;52.084;5.412;2024-01-30T12:49:43;3.65;;;1.50;;
65924;SDS011;66010;52.084;5.412;2024-01-30T12:52:11;4.55;;;1.80;;
65924;SDS011;66010;52.084;5.412;2024-01-30T12:54:38;3.85;;;1.60;;
65924;SDS011;66010;52.084;5.412;2024-01-30T12:57:05;3.55;;;1.42;;
65924;SDS011;66010;52.084;5.412;2024-01-30T12:59:31;3.85;;;1.60;;
65924;SDS011;66010;52.084;5.412;2024-01-30T13:01:59;3.72;;;1.65;;
65924;SDS011;66010;52.084;5.412;2024-01-30T13:04:26;4.90;;;1.55;;
65924;SDS011;66010;52.084;5.412;2024-01-30T13:06:53;4.78;;;1.70;;
65924;SDS011;66010;52.084;5.412;2024-01-30T13:09:20;4.53;;;1.58;;
65924;SDS011;66010;52.084;5.412;2024-01-30T13:11:46;3.55;;;1.45;;
65924;SDS011;66010;52.084;5.412;2024-01-30T13:14:13;3.08;;;1.30;;
65924;SDS011;66010;52.084;5.412;2024-01-30T13:16:39;3.85;;;1.23;;
65924;SDS011;66010;52.084;5.412;2024-01-30T13:19:06;4.07;;;1.50;;
65924;SDS011;66010;52.084;5.412;2024-01-30T13:21:32;3.47;;;1.25;;
65924;SDS011;66010;52.084;5.412;2024-01-30T13:23:59;4.07;;;1.40;;
65924;SDS011;66010;52.084;5.412;2024-01-30T13:26:26;3.50;;;1.35;;
65924;SDS011;66010;52.084;5.412;2024-01-30T13:28:52;3.33;;;1.20;;
65924;SDS011;66010;52.084;5.412;2024-01-30T13:31:19;3.97;;;1.60;;
65924;SDS011;66010;52.084;5.412;2024-01-30T13:33:45;6.60;;;1.40;;
65924;SDS011;66010;52.084;5.412;2024-01-30T13:36:12;4.65;;;1.42;;
65924;SDS011;66010;52.084;5.412;2024-01-30T13:38:39;3.33;;;1.33;;
65924;SDS011;66010;52.084;5.412;2024-01-30T13:41:05;2.78;;;1.30;;
65924;SDS011;66010;52.084;5.412;2024-01-30T13:43:32;4.10;;;1.30;;
65924;SDS011;66010;52.084;5.412;2024-01-30T13:45:58;4.03;;;1.23;;
65924;SDS011;66010;52.084;5.412;2024-01-30T13:48:25;4.10;;;1.30;;
65924;SDS011;66010;52.084;5.412;2024-01-30T13:50:52;5.13;;;1.35;;
65924;SDS011;66010;52.084;5.412;2024-01-30T13:53:20;3.92;;;1.30;;
65924;SDS011;66010;52.084;5.412;2024-01-30T13:55:47;3.90;;;1.30;;
65924;SDS011;66010;52.084;5.412;2024-01-30T13:58:13;4.40;;;1.30;;
65924;SDS011;66010;52.084;5.412;2024-01-30T14:00:40;3.42;;;1.20;;
65924;SDS011;66010;52.084;5.412;2024-01-30T14:03:07;3.97;;;1.17;;
65924;SDS011;66010;52.084;5.412;2024-01-30T14:05:33;3.63;;;1.30;;
65924;SDS011;66010;52.084;5.412;2024-01-30T14:08:00;3.30;;;1.17;;
65924;SDS011;66010;52.084;5.412;2024-01-30T14:10:27;4.68;;;1.25;;
65924;SDS011;66010;52.084;5.412;2024-01-30T14:12:53;2.20;;;1.10;;
65924;SDS011;66010;52.084;5.412;2024-01-30T14:15:20;3.92;;;1.08;;
65924;SDS011;66010;52.084;5.412;2024-01-30T14:17:54;3.70;;;1.00;;
65924;SDS011;66010;52.084;5.412;2024-01-30T14:20:22;4.15;;;1.05;;
65924;SDS011;66010;52.084;5.412;2024-01-30T14:22:48;3.75;;;1.17;;
65924;SDS011;66010;52.084;5.412;2024-01-30T14:25:15;3.83;;;1.10;;
65924;SDS011;66010;52.084;5.412;2024-01-30T14:27:43;3.10;;;1.00;;
65924;SDS011;66010;52.084;5.412;2024-01-30T14:30:10;3.95;;;1.25;;
65924;SDS011;66010;52.084;5.412;2024-01-30T14:32:36;3.20;;;1.17;;
65924;SDS011;66010;52.084;5.412;2024-01-30T14:35:04;4.93;;;1.10;;
65924;SDS011;66010;52.084;5.412;2024-01-30T14:37:31;2.88;;;1.10;;
65924;SDS011;66010;52.084;5.412;2024-01-30T14:39:58;3.88;;;1.10;;
65924;SDS011;66010;52.084;5.412;2024-01-30T14:42:25;2.15;;;0.93;;
65924;SDS011;66010;52.084;5.412;2024-01-30T14:44:51;3.65;;;1.20;;
65924;SDS011;66010;52.084;5.412;2024-01-30T14:47:18;2.97;;;0.80;;
65924;SDS011;66010;52.084;5.412;2024-01-30T14:49:44;2.70;;;1.00;;
65924;SDS011;66010;52.084;5.412;2024-01-30T14:52:11;4.30;;;1.00;;
65924;SDS011;66010;52.084;5.412;2024-01-30T14:54:38;3.22;;;1.00;;
65924;SDS011;66010;52.084;5.412;2024-01-30T14:57:04;2.25;;;0.90;;
65924;SDS011;66010;52.084;5.412;2024-01-30T14:59:31;3.10;;;1.00;;
65924;SDS011;66010;52.084;5.412;2024-01-30T15:01:57;3.13;;;1.00;;
65924;SDS011;66010;52.084;5.412;2024-01-30T15:04:25;3.13;;;0.90;;
65924;SDS011;66010;52.084;5.412;2024-01-30T15:06:51;3.38;;;1.13;;
65924;SDS011;66010;52.084;5.412;2024-01-30T15:09:18;3.08;;;1.10;;